Terminal Aerodrome Forecast
Issued by NWS

Home | Current Version | Previous Version | Text Only | Print | Product List | Glossary On
Versions: 1 2 3 4 5 6 7 8 9 10 11 12 13
676
FTUS46 KMTR 111430 AAA
TAFSJC
TAF AMD
KSJC 111430Z 1115/1212 VRB03KT P6SM BKN025
     FM111900 29008KT P6SM FEW040 BKN200
     FM120400 VRB03KT P6SM OVC120
     FM121100 VRB02KT P6SM OVC090=

USA.gov is the U.S. government's official web portal to all federal, state and local government web resources and services.